Shokyu Maru — JG5288 — position and weather

sailwx.info

Track history (hours):
 
Tides and Currents Weather Stations Pressure Air Temp Water Temp Dewpoint Dewpoint Depression Visibility Wind Speed Wind Dir Waves Ship Positions

Shokyu Maru

Last reported at 2015-May-27 23:21 UTC. Time now 2015-May-27 23:51 UTC.
Position N 35°41' E 139°56'.

Length 91 m; draft 5 m.

Type: Tanker. MMSI: 431000253.

Date/timePositionNaut miles runAvg speedWind from/ knotsBaromVisibWave heightAir tempDewpointWater temp
2015-May-27 23:21N 35°41' E 139°56'5 6.5
2015-May-27 22:33N 35°35' E 139°56'1 0.5
2015-May-27 21:26N 35°35' E 139°55'0 0.0
2015-May-27 20:32N 35°35' E 139°55'0 0.0
2015-May-27 19:32N 35°35' E 139°55'0 0.0
2015-May-27 18:26N 35°35' E 139°55'0 0.0
2015-May-27 17:32N 35°35' E 139°55'0 0.0
2015-May-27 16:14N 35°35' E 139°55'0 0.0
2015-May-27 15:32N 35°35' E 139°55'0 0.0
2015-May-27 14:20N 35°35' E 139°55'6 8.0
2015-May-27 13:33N 35°31' E 139°50'1010.0
2015-May-27 12:34N 35°24' E 139°41'2 1.6
2015-May-27 11:33N 35°24' E 139°40'0 0.0
2015-May-27 10:33N 35°24' E 139°40'0 0.0
2015-May-27 09:33N 35°24' E 139°40'0 0.0
2015-May-27 08:33N 35°24' E 139°40'0 0.0
2015-May-27 07:33N 35°24' E 139°40'0 0.0
2015-May-27 06:34N 35°24' E 139°40'5 4.8
2015-May-27 05:33N 35°27' E 139°45'9 9.1
2015-May-27 04:33N 35°33' E 139°53'8 8.1
2015-May-27 03:33N 35°40' E 139°57'1 0.5
2015-May-27 02:30N 35°41' E 139°56'0 0.0
2015-May-27 01:12N 35°41' E 139°56'0 0.0
2015-May-27 00:30N 35°41' E 139°56'0 0.0
2015-May-26 23:30N 35°41' E 139°56'2 2.3
2015-May-26 22:33N 35°39' E 139°58'5 4.3
2015-May-26 21:28N 35°35' E 139°55'0 0.0
2015-May-26 20:28N 35°35' E 139°55'0 0.0
2015-May-26 19:31N 35°35' E 139°55'0 0.0
2015-May-26 18:22N 35°35' E 139°55'0 0.0
2015-May-26 17:22N 35°35' E 139°55'0 0.0
2015-May-26 16:22N 35°35' E 139°55'0 0.0
2015-May-26 15:10N 35°35' E 139°55'0 0.0
2015-May-26 14:31N 35°35' E 139°55'0 0.0
2015-May-26 13:31N 35°35' E 139°55'0 0.0
2015-May-26 12:31N 35°35' E 139°55'0 0.0
2015-May-26 11:22N 35°35' E 139°55'0 0.0
2015-May-26 10:28N 35°35' E 139°55'0 0.0
2015-May-26 09:28N 35°35' E 139°55'2 2.1
2015-May-26 08:33N 35°33' E 139°57'6 5.5
2015-May-26 07:32N 35°29' E 140°01'0 0.0
2015-May-26 06:32N 35°29' E 140°01'0 0.0
2015-May-26 05:32N 35°29' E 140°01'0 0.0
2015-May-26 04:32N 35°29' E 140°01'0 0.0
2015-May-26 03:26N 35°29' E 140°01'0 0.2
2015-May-26 02:33N 35°29' E 140°01'1010.1
2015-May-26 01:33N 35°39' E 139°58'2 2.3
2015-May-26 00:33N 35°41' E 139°56'0 0.0
2015-May-25 23:27N 35°41' E 139°56'0 0.0
2015-May-25 22:27N 35°41' E 139°56'2 2.2
2015-May-25 21:33N 35°39' E 139°58'4 3.2
2015-May-25 20:19N 35°36' E 139°55'0 0.0
2015-May-25 19:28N 35°36' E 139°55'0 0.0
2015-May-25 18:19N 35°36' E 139°55'0 0.0
2015-May-25 17:28N 35°36' E 139°55'0 0.0
2015-May-25 16:25N 35°36' E 139°55'0 0.0
2015-May-25 15:28N 35°36' E 139°55'0 0.0
2015-May-25 14:28N 35°36' E 139°55'0 0.0
2015-May-25 13:28N 35°36' E 139°55'0 0.0
2015-May-25 12:13N 35°36' E 139°55'0 0.0
2015-May-25 11:33N 35°36' E 139°55'4 4.3
2015-May-25 10:33N 35°33' E 139°52'5 4.6
2015-May-25 09:31N 35°31' E 139°46'0 0.0
2015-May-25 08:31N 35°31' E 139°46'0 0.0
2015-May-25 07:31N 35°31' E 139°46'0 0.0
2015-May-25 06:28N 35°31' E 139°46'0 0.4
2015-May-25 05:33N 35°31' E 139°46'3 2.5
2015-May-25 04:33N 35°29' E 139°48'1111.2
2015-May-25 03:33N 35°37' E 139°57'4 3.4
2015-May-25 02:28N 35°41' E 139°56'0 0.0
2015-May-25 01:31N 35°41' E 139°56'0 0.0
2015-May-25 00:22N 35°41' E 139°56'0 0.0
2015-May-24 23:16N 35°41' E 139°56'0 0.0
2015-May-24 22:28N 35°41' E 139°56'2 2.4
2015-May-24 21:33N 35°39' E 139°58'4 4.1
2015-May-24 20:31N 35°35' E 139°55'0 0.1
2015-May-24 19:25N 35°35' E 139°55'0 0.1
2015-May-24 18:31N 35°35' E 139°55'0 0.0
2015-May-24 17:31N 35°35' E 139°55'0 0.0
2015-May-24 16:25N 35°35' E 139°55'0 0.0
2015-May-24 15:25N 35°35' E 139°55'1 0.8
2015-May-24 14:33N 35°35' E 139°55'1010.4
2015-May-24 13:33N 35°28' E 139°46'6 5.8
2015-May-24 12:33N 35°24' E 139°40'0 0.0
2015-May-24 11:30N 35°24' E 139°40'0 0.0
2015-May-24 10:33N 35°24' E 139°40'0 0.0
2015-May-24 09:33N 35°24' E 139°40'0 0.0
2015-May-24 08:33N 35°24' E 139°40'0 0.0
2015-May-24 07:33N 35°24' E 139°40'0 0.0
2015-May-24 06:33N 35°24' E 139°40'0 0.0
2015-May-24 05:33N 35°24' E 139°40'7 7.2
2015-May-24 04:33N 35°28' E 139°47'1111.3
2015-May-24 03:32N 35°36' E 139°57'4 3.8
2015-May-24 02:25N 35°41' E 139°56'0 0.0
2015-May-24 01:31N 35°41' E 139°56'0 0.0
2015-May-24 00:31N 35°41' E 139°56'0 0.0
2015-May-23 23:25N 35°41' E 139°56'0 0.0
2015-May-23 22:31N 35°41' E 139°56'2 1.9
2015-May-23 21:33N 35°39' E 139°58'4 4.0
2015-May-23 20:31N 35°36' E 139°55'0 0.0
2015-May-23 19:31N 35°36' E 139°55'0 0.0
2015-May-23 17:31N 35°36' E 139°55'0 0.0
2015-May-23 16:31N 35°36' E 139°55'0 0.0
2015-May-23 15:25N 35°36' E 139°55'0 0.1
2015-May-23 14:33N 35°36' E 139°55'1010.0
2015-May-23 13:33N 35°28' E 139°47'7 7.0
2015-May-23 12:33N 35°24' E 139°40'0 0.0
2015-May-23 11:33N 35°24' E 139°40'0 0.0
2015-May-23 10:33N 35°24' E 139°40'0 0.0
2015-May-23 09:33N 35°24' E 139°40'0 0.0
2015-May-23 08:33N 35°24' E 139°40'0 0.0
2015-May-23 07:33N 35°24' E 139°40'2 2.2
2015-May-23 06:33N 35°25' E 139°42'1010.1
2015-May-23 05:33N 35°31' E 139°52'6 5.4
2015-May-23 04:32N 35°36' E 139°55'2 2.3
2015-May-23 03:33N 35°37' E 139°57'3 2.9
2015-May-23 02:23N 35°41' E 139°56'0 0.0
2015-May-23 01:29N 35°41' E 139°56'0 0.0
2015-May-23 00:23N 35°41' E 139°56'0 0.0
2015-May-22 23:29N 35°41' E 139°56'0 0.0
2015-May-22 22:26N 35°41' E 139°56'3 2.9
2015-May-22 21:33N 35°39' E 139°58'5 4.6
2015-May-22 20:33N 35°35' E 139°55'0 0.0
2015-May-22 19:30N 35°35' E 139°55'0 0.0
2015-May-22 18:33N 35°35' E 139°55'0 0.0
2015-May-22 17:27N 35°35' E 139°55'0 0.0
2015-May-22 16:33N 35°35' E 139°55'0 0.0
2015-May-22 15:15N 35°35' E 139°55'0 0.0
2015-May-22 14:33N 35°35' E 139°55'0 0.0
2015-May-22 13:33N 35°35' E 139°55'0 0.0
2015-May-22 12:27N 35°35' E 139°55'0 0.0
2015-May-22 11:33N 35°35' E 139°55'2 2.4
2015-May-22 10:33N 35°33' E 139°58'5 4.4
2015-May-22 09:30N 35°31' E 140°03'0 0.0
2015-May-22 08:33N 35°31' E 140°03'0 0.0
2015-May-22 07:33N 35°31' E 140°03'0 0.0
2015-May-22 06:30N 35°31' E 140°03'0 0.0
2015-May-22 05:33N 35°31' E 140°03'0 0.0
2015-May-22 04:33N 35°31' E 140°03'0 0.0
2015-May-22 03:27N 35°31' E 140°03'0 0.0
2015-May-22 02:33N 35°31' E 140°03'0 0.0
2015-May-22 01:33N 35°31' E 140°03'0 0.0
2015-May-22 00:33N 35°31' E 140°03'0 0.0
2015-May-21 23:33N 35°31' E 140°03'4 4.3
2015-May-21 22:33N 35°31' E 139°57'1110.6
2015-May-21 21:33N 35°28' E 139°45'5 4.8
2015-May-21 20:31N 35°29' E 139°39'0 0.0
2015-May-21 19:31N 35°29' E 139°39'0 0.0
2015-May-21 18:31N 35°29' E 139°39'0 0.0
2015-May-21 17:31N 35°29' E 139°39'0 0.0
2015-May-21 16:31N 35°29' E 139°39'0 0.0
2015-May-21 15:31N 35°29' E 139°39'0 0.0
2015-May-21 14:31N 35°29' E 139°39'0 0.0
2015-May-21 13:31N 35°29' E 139°39'0 0.0
2015-May-21 12:31N 35°29' E 139°39'0 0.0
2015-May-21 11:31N 35°29' E 139°39'0 0.0
2015-May-21 10:31N 35°29' E 139°39'0 0.0
2015-May-21 09:31N 35°29' E 139°39'0 0.0
2015-May-21 08:31N 35°29' E 139°39'0 0.0
2015-May-21 07:31N 35°29' E 139°39'0 0.0
2015-May-21 06:31N 35°29' E 139°39'0 0.0
2015-May-21 05:31N 35°29' E 139°39'0 0.0
2015-May-21 04:31N 35°29' E 139°39'0 0.0
2015-May-21 03:31N 35°29' E 139°39'0 0.0
2015-May-21 02:31N 35°29' E 139°39'0 0.0
2015-May-21 01:31N 35°29' E 139°39'0 0.0
2015-May-21 00:31N 35°29' E 139°39'0 0.0
2015-May-20 23:31N 35°29' E 139°39'0 0.0
2015-May-20 22:31N 35°29' E 139°39'0 0.0
2015-May-20 21:31N 35°29' E 139°39'0 0.0
2015-May-20 20:31N 35°29' E 139°39'0 0.0
2015-May-20 19:31N 35°29' E 139°39'0 0.0
2015-May-20 18:31N 35°29' E 139°39'0 0.0
2015-May-20 17:31N 35°29' E 139°39'0 0.0
2015-May-20 16:31N 35°29' E 139°39'0 0.0
2015-May-20 15:31N 35°29' E 139°39'0 0.0
2015-May-20 14:31N 35°29' E 139°39'0 0.0
2015-May-20 13:31N 35°29' E 139°39'0 0.0
2015-May-20 12:31N 35°29' E 139°39'0 0.0
2015-May-20 11:31N 35°29' E 139°39'0 0.0
2015-May-20 10:31N 35°29' E 139°39'0 0.0
2015-May-20 09:31N 35°29' E 139°39'0 0.0
2015-May-20 08:31N 35°29' E 139°39'0 0.0
2015-May-20 07:31N 35°29' E 139°39'0 0.0
2015-May-20 06:28N 35°29' E 139°39'2 1.7
2015-May-20 05:34N 35°27' E 139°40'7 7.3
2015-May-20 04:33N 35°29' E 139°49'9 9.1
2015-May-20 03:33N 35°36' E 139°56'5 4.0
2015-May-20 02:23N 35°41' E 139°56'0 0.0
2015-May-20 01:17N 35°41' E 139°56'0 0.0
2015-May-20 00:29N 35°41' E 139°56'0 0.0
2015-May-19 23:23N 35°41' E 139°56'0 0.0
2015-May-19 22:29N 35°41' E 139°56'2 2.0
2015-May-19 21:33N 35°39' E 139°58'4 3.9
2015-May-19 20:29N 35°36' E 139°55'0 0.0
2015-May-19 19:32N 35°36' E 139°55'0 0.0
2015-May-19 18:32N 35°36' E 139°55'0 0.0
2015-May-19 17:29N 35°36' E 139°55'0 0.1
2015-May-19 16:29N 35°36' E 139°55'0 0.1
2015-May-19 15:32N 35°36' E 139°55'0 0.0
2015-May-19 14:29N 35°36' E 139°55'3 2.8
2015-May-19 13:33N 35°34' E 139°53'6 6.3
2015-May-19 12:33N 35°31' E 139°46'0 0.0
2015-May-19 11:33N 35°31' E 139°46'0 0.0
2015-May-19 10:33N 35°31' E 139°46'0 0.0
2015-May-19 09:33N 35°31' E 139°46'0 0.0
2015-May-19 08:33N 35°31' E 139°46'0 0.0
2015-May-19 07:33N 35°31' E 139°46'0 0.0
2015-May-19 06:33N 35°31' E 139°46'5 4.6
2015-May-19 05:33N 35°28' E 139°42'9 8.9
2015-May-19 04:33N 35°32' E 139°53'7 7.4
2015-May-19 03:33N 35°37' E 139°58'3 2.9
2015-May-19 02:24N 35°41' E 139°56'0 0.0
2015-May-19 01:24N 35°41' E 139°56'0 0.0
2015-May-19 00:27N 35°41' E 139°56'0 0.0
2015-May-18 23:33N 35°41' E 139°56'0 0.0
2015-May-18 22:30N 35°41' E 139°56'3 3.2
2015-May-18 21:33N 35°38' E 139°59'3 3.3
2015-May-18 20:33N 35°36' E 139°55'0 0.0
2015-May-18 19:27N 35°36' E 139°55'0 0.0
2015-May-18 18:33N 35°36' E 139°55'0 0.0
2015-May-18 17:33N 35°36' E 139°55'0 0.0
2015-May-18 16:33N 35°36' E 139°55'0 0.0
2015-May-18 15:33N 35°36' E 139°55'0 0.0
2015-May-18 14:33N 35°36' E 139°55'0 0.0
2015-May-18 13:33N 35°36' E 139°55'0 0.0
2015-May-18 12:33N 35°36' E 139°55'0 0.0
2015-May-18 11:33N 35°36' E 139°55'0 0.0
2015-May-18 10:30N 35°36' E 139°55'0 0.0
2015-May-18 09:33N 35°36' E 139°55'9 8.7
2015-May-18 08:33N 35°29' E 140°01'0 0.1
2015-May-18 07:26N 35°29' E 140°01'0 0.0
2015-May-18 06:32N 35°29' E 140°01'0 0.0
2015-May-18 05:14N 35°29' E 140°01'0 0.0
2015-May-18 04:26N 35°29' E 140°01'0 0.0
2015-May-18 03:32N 35°29' E 140°01'0 0.0
2015-May-18 02:33N 35°29' E 140°01'9 9.4
2015-May-18 01:33N 35°38' E 139°59'3 3.1
2015-May-18 00:31N 35°41' E 139°56'  
Track history (hours):
 
Tides and Currents Weather Stations Pressure Air Temp Water Temp Dewpoint Dewpoint Depression Visibility Wind Speed Wind Dir Waves Ship Positions

Shokyu Maru

Last reported at 2015-May-27 23:21 UTC. Time now 2015-May-27 23:51 UTC.
Position N 35°41' E 139°56'.

Length 91 m; draft 5 m.

Type: Tanker. MMSI: 431000253.

Date/timePositionNaut miles runAvg speedWind from/ knotsBaromVisibWave heightAir tempDewpointWater temp
2015-May-27 23:21N 35°41' E 139°56'5 6.5
2015-May-27 22:33N 35°35' E 139°56'1 0.5
2015-May-27 21:26N 35°35' E 139°55'0 0.0
2015-May-27 20:32N 35°35' E 139°55'0 0.0
2015-May-27 19:32N 35°35' E 139°55'0 0.0
2015-May-27 18:26N 35°35' E 139°55'0 0.0
2015-May-27 17:32N 35°35' E 139°55'0 0.0
2015-May-27 16:14N 35°35' E 139°55'0 0.0
2015-May-27 15:32N 35°35' E 139°55'0 0.0
2015-May-27 14:20N 35°35' E 139°55'6 8.0
2015-May-27 13:33N 35°31' E 139°50'1010.0
2015-May-27 12:34N 35°24' E 139°41'2 1.6
2015-May-27 11:33N 35°24' E 139°40'0 0.0
2015-May-27 10:33N 35°24' E 139°40'0 0.0
2015-May-27 09:33N 35°24' E 139°40'0 0.0
2015-May-27 08:33N 35°24' E 139°40'0 0.0
2015-May-27 07:33N 35°24' E 139°40'0 0.0
2015-May-27 06:34N 35°24' E 139°40'5 4.8
2015-May-27 05:33N 35°27' E 139°45'9 9.1
2015-May-27 04:33N 35°33' E 139°53'8 8.1
2015-May-27 03:33N 35°40' E 139°57'1 0.5
2015-May-27 02:30N 35°41' E 139°56'0 0.0
2015-May-27 01:12N 35°41' E 139°56'0 0.0
2015-May-27 00:30N 35°41' E 139°56'0 0.0
2015-May-26 23:30N 35°41' E 139°56'2 2.3
2015-May-26 22:33N 35°39' E 139°58'5 4.3
2015-May-26 21:28N 35°35' E 139°55'0 0.0
2015-May-26 20:28N 35°35' E 139°55'0 0.0
2015-May-26 19:31N 35°35' E 139°55'0 0.0
2015-May-26 18:22N 35°35' E 139°55'0 0.0
2015-May-26 17:22N 35°35' E 139°55'0 0.0
2015-May-26 16:22N 35°35' E 139°55'0 0.0
2015-May-26 15:10N 35°35' E 139°55'0 0.0
2015-May-26 14:31N 35°35' E 139°55'0 0.0
2015-May-26 13:31N 35°35' E 139°55'0 0.0
2015-May-26 12:31N 35°35' E 139°55'0 0.0
2015-May-26 11:22N 35°35' E 139°55'0 0.0
2015-May-26 10:28N 35°35' E 139°55'0 0.0
2015-May-26 09:28N 35°35' E 139°55'2 2.1
2015-May-26 08:33N 35°33' E 139°57'6 5.5
2015-May-26 07:32N 35°29' E 140°01'0 0.0
2015-May-26 06:32N 35°29' E 140°01'0 0.0
2015-May-26 05:32N 35°29' E 140°01'0 0.0
2015-May-26 04:32N 35°29' E 140°01'0 0.0
2015-May-26 03:26N 35°29' E 140°01'0 0.2
2015-May-26 02:33N 35°29' E 140°01'1010.1
2015-May-26 01:33N 35°39' E 139°58'2 2.3
2015-May-26 00:33N 35°41' E 139°56'0 0.0
2015-May-25 23:27N 35°41' E 139°56'0 0.0
2015-May-25 22:27N 35°41' E 139°56'2 2.2
2015-May-25 21:33N 35°39' E 139°58'4 3.2
2015-May-25 20:19N 35°36' E 139°55'0 0.0
2015-May-25 19:28N 35°36' E 139°55'0 0.0
2015-May-25 18:19N 35°36' E 139°55'0 0.0
2015-May-25 17:28N 35°36' E 139°55'0 0.0
2015-May-25 16:25N 35°36' E 139°55'0 0.0
2015-May-25 15:28N 35°36' E 139°55'0 0.0
2015-May-25 14:28N 35°36' E 139°55'0 0.0
2015-May-25 13:28N 35°36' E 139°55'0 0.0
2015-May-25 12:13N 35°36' E 139°55'0 0.0
2015-May-25 11:33N 35°36' E 139°55'4 4.3
2015-May-25 10:33N 35°33' E 139°52'5 4.6
2015-May-25 09:31N 35°31' E 139°46'0 0.0
2015-May-25 08:31N 35°31' E 139°46'0 0.0
2015-May-25 07:31N 35°31' E 139°46'0 0.0
2015-May-25 06:28N 35°31' E 139°46'0 0.4
2015-May-25 05:33N 35°31' E 139°46'3 2.5
2015-May-25 04:33N 35°29' E 139°48'1111.2
2015-May-25 03:33N 35°37' E 139°57'4 3.4
2015-May-25 02:28N 35°41' E 139°56'0 0.0
2015-May-25 01:31N 35°41' E 139°56'0 0.0
2015-May-25 00:22N 35°41' E 139°56'0 0.0
2015-May-24 23:16N 35°41' E 139°56'0 0.0
2015-May-24 22:28N 35°41' E 139°56'2 2.4
2015-May-24 21:33N 35°39' E 139°58'4 4.1
2015-May-24 20:31N 35°35' E 139°55'0 0.1
2015-May-24 19:25N 35°35' E 139°55'0 0.1
2015-May-24 18:31N 35°35' E 139°55'0 0.0
2015-May-24 17:31N 35°35' E 139°55'0 0.0
2015-May-24 16:25N 35°35' E 139°55'0 0.0
2015-May-24 15:25N 35°35' E 139°55'1 0.8
2015-May-24 14:33N 35°35' E 139°55'1010.4
2015-May-24 13:33N 35°28' E 139°46'6 5.8
2015-May-24 12:33N 35°24' E 139°40'0 0.0
2015-May-24 11:30N 35°24' E 139°40'0 0.0
2015-May-24 10:33N 35°24' E 139°40'0 0.0
2015-May-24 09:33N 35°24' E 139°40'0 0.0
2015-May-24 08:33N 35°24' E 139°40'0 0.0
2015-May-24 07:33N 35°24' E 139°40'0 0.0
2015-May-24 06:33N 35°24' E 139°40'0 0.0
2015-May-24 05:33N 35°24' E 139°40'7 7.2
2015-May-24 04:33N 35°28' E 139°47'1111.3
2015-May-24 03:32N 35°36' E 139°57'4 3.8
2015-May-24 02:25N 35°41' E 139°56'0 0.0
2015-May-24 01:31N 35°41' E 139°56'0 0.0
2015-May-24 00:31N 35°41' E 139°56'0 0.0
2015-May-23 23:25N 35°41' E 139°56'0 0.0
2015-May-23 22:31N 35°41' E 139°56'2 1.9
2015-May-23 21:33N 35°39' E 139°58'4 4.0
2015-May-23 20:31N 35°36' E 139°55'0 0.0
2015-May-23 19:31N 35°36' E 139°55'0 0.0
2015-May-23 17:31N 35°36' E 139°55'0 0.0
2015-May-23 16:31N 35°36' E 139°55'0 0.0
2015-May-23 15:25N 35°36' E 139°55'0 0.1
2015-May-23 14:33N 35°36' E 139°55'1010.0
2015-May-23 13:33N 35°28' E 139°47'7 7.0
2015-May-23 12:33N 35°24' E 139°40'0 0.0
2015-May-23 11:33N 35°24' E 139°40'0 0.0
2015-May-23 10:33N 35°24' E 139°40'0 0.0
2015-May-23 09:33N 35°24' E 139°40'0 0.0
2015-May-23 08:33N 35°24' E 139°40'0 0.0
2015-May-23 07:33N 35°24' E 139°40'2 2.2
2015-May-23 06:33N 35°25' E 139°42'1010.1
2015-May-23 05:33N 35°31' E 139°52'6 5.4
2015-May-23 04:32N 35°36' E 139°55'2 2.3
2015-May-23 03:33N 35°37' E 139°57'3 2.9
2015-May-23 02:23N 35°41' E 139°56'0 0.0
2015-May-23 01:29N 35°41' E 139°56'0 0.0
2015-May-23 00:23N 35°41' E 139°56'0 0.0
2015-May-22 23:29N 35°41' E 139°56'0 0.0
2015-May-22 22:26N 35°41' E 139°56'3 2.9
2015-May-22 21:33N 35°39' E 139°58'5 4.6
2015-May-22 20:33N 35°35' E 139°55'0 0.0
2015-May-22 19:30N 35°35' E 139°55'0 0.0
2015-May-22 18:33N 35°35' E 139°55'0 0.0
2015-May-22 17:27N 35°35' E 139°55'0 0.0
2015-May-22 16:33N 35°35' E 139°55'0 0.0
2015-May-22 15:15N 35°35' E 139°55'0 0.0
2015-May-22 14:33N 35°35' E 139°55'0 0.0
2015-May-22 13:33N 35°35' E 139°55'0 0.0
2015-May-22 12:27N 35°35' E 139°55'0 0.0
2015-May-22 11:33N 35°35' E 139°55'2 2.4
2015-May-22 10:33N 35°33' E 139°58'5 4.4
2015-May-22 09:30N 35°31' E 140°03'0 0.0
2015-May-22 08:33N 35°31' E 140°03'0 0.0
2015-May-22 07:33N 35°31' E 140°03'0 0.0
2015-May-22 06:30N 35°31' E 140°03'0 0.0
2015-May-22 05:33N 35°31' E 140°03'0 0.0
2015-May-22 04:33N 35°31' E 140°03'0 0.0
2015-May-22 03:27N 35°31' E 140°03'0 0.0
2015-May-22 02:33N 35°31' E 140°03'0 0.0
2015-May-22 01:33N 35°31' E 140°03'0 0.0
2015-May-22 00:33N 35°31' E 140°03'0 0.0
2015-May-21 23:33N 35°31' E 140°03'4 4.3
2015-May-21 22:33N 35°31' E 139°57'1110.6
2015-May-21 21:33N 35°28' E 139°45'5 4.8
2015-May-21 20:31N 35°29' E 139°39'0 0.0
2015-May-21 19:31N 35°29' E 139°39'0 0.0
2015-May-21 18:31N 35°29' E 139°39'0 0.0
2015-May-21 17:31N 35°29' E 139°39'0 0.0
2015-May-21 16:31N 35°29' E 139°39'0 0.0
2015-May-21 15:31N 35°29' E 139°39'0 0.0
2015-May-21 14:31N 35°29' E 139°39'0 0.0
2015-May-21 13:31N 35°29' E 139°39'0 0.0
2015-May-21 12:31N 35°29' E 139°39'0 0.0
2015-May-21 11:31N 35°29' E 139°39'0 0.0
2015-May-21 10:31N 35°29' E 139°39'0 0.0
2015-May-21 09:31N 35°29' E 139°39'0 0.0
2015-May-21 08:31N 35°29' E 139°39'0 0.0
2015-May-21 07:31N 35°29' E 139°39'0 0.0
2015-May-21 06:31N 35°29' E 139°39'0 0.0
2015-May-21 05:31N 35°29' E 139°39'0 0.0
2015-May-21 04:31N 35°29' E 139°39'0 0.0
2015-May-21 03:31N 35°29' E 139°39'0 0.0
2015-May-21 02:31N 35°29' E 139°39'0 0.0
2015-May-21 01:31N 35°29' E 139°39'0 0.0
2015-May-21 00:31N 35°29' E 139°39'0 0.0
2015-May-20 23:31N 35°29' E 139°39'0 0.0
2015-May-20 22:31N 35°29' E 139°39'0 0.0
2015-May-20 21:31N 35°29' E 139°39'0 0.0
2015-May-20 20:31N 35°29' E 139°39'0 0.0
2015-May-20 19:31N 35°29' E 139°39'0 0.0
2015-May-20 18:31N 35°29' E 139°39'0 0.0
2015-May-20 17:31N 35°29' E 139°39'0 0.0
2015-May-20 16:31N 35°29' E 139°39'0 0.0
2015-May-20 15:31N 35°29' E 139°39'0 0.0
2015-May-20 14:31N 35°29' E 139°39'0 0.0
2015-May-20 13:31N 35°29' E 139°39'0 0.0
2015-May-20 12:31N 35°29' E 139°39'0 0.0
2015-May-20 11:31N 35°29' E 139°39'0 0.0
2015-May-20 10:31N 35°29' E 139°39'0 0.0
2015-May-20 09:31N 35°29' E 139°39'0 0.0
2015-May-20 08:31N 35°29' E 139°39'0 0.0
2015-May-20 07:31N 35°29' E 139°39'0 0.0
2015-May-20 06:28N 35°29' E 139°39'2 1.7
2015-May-20 05:34N 35°27' E 139°40'7 7.3
2015-May-20 04:33N 35°29' E 139°49'9 9.1
2015-May-20 03:33N 35°36' E 139°56'5 4.0
2015-May-20 02:23N 35°41' E 139°56'0 0.0
2015-May-20 01:17N 35°41' E 139°56'0 0.0
2015-May-20 00:29N 35°41' E 139°56'0 0.0
2015-May-19 23:23N 35°41' E 139°56'0 0.0
2015-May-19 22:29N 35°41' E 139°56'2 2.0
2015-May-19 21:33N 35°39' E 139°58'4 3.9
2015-May-19 20:29N 35°36' E 139°55'0 0.0
2015-May-19 19:32N 35°36' E 139°55'0 0.0
2015-May-19 18:32N 35°36' E 139°55'0 0.0
2015-May-19 17:29N 35°36' E 139°55'0 0.1
2015-May-19 16:29N 35°36' E 139°55'0 0.1
2015-May-19 15:32N 35°36' E 139°55'0 0.0
2015-May-19 14:29N 35°36' E 139°55'3 2.8
2015-May-19 13:33N 35°34' E 139°53'6 6.3
2015-May-19 12:33N 35°31' E 139°46'0 0.0
2015-May-19 11:33N 35°31' E 139°46'0 0.0
2015-May-19 10:33N 35°31' E 139°46'0 0.0
2015-May-19 09:33N 35°31' E 139°46'0 0.0
2015-May-19 08:33N 35°31' E 139°46'0 0.0
2015-May-19 07:33N 35°31' E 139°46'0 0.0
2015-May-19 06:33N 35°31' E 139°46'5 4.6
2015-May-19 05:33N 35°28' E 139°42'9 8.9
2015-May-19 04:33N 35°32' E 139°53'7 7.4
2015-May-19 03:33N 35°37' E 139°58'3 2.9
2015-May-19 02:24N 35°41' E 139°56'0 0.0
2015-May-19 01:24N 35°41' E 139°56'0 0.0
2015-May-19 00:27N 35°41' E 139°56'0 0.0
2015-May-18 23:33N 35°41' E 139°56'0 0.0
2015-May-18 22:30N 35°41' E 139°56'3 3.2
2015-May-18 21:33N 35°38' E 139°59'3 3.3
2015-May-18 20:33N 35°36' E 139°55'0 0.0
2015-May-18 19:27N 35°36' E 139°55'0 0.0
2015-May-18 18:33N 35°36' E 139°55'0 0.0
2015-May-18 17:33N 35°36' E 139°55'0 0.0
2015-May-18 16:33N 35°36' E 139°55'0 0.0
2015-May-18 15:33N 35°36' E 139°55'0 0.0
2015-May-18 14:33N 35°36' E 139°55'0 0.0
2015-May-18 13:33N 35°36' E 139°55'0 0.0
2015-May-18 12:33N 35°36' E 139°55'0 0.0
2015-May-18 11:33N 35°36' E 139°55'0 0.0
2015-May-18 10:30N 35°36' E 139°55'0 0.0
2015-May-18 09:33N 35°36' E 139°55'9 8.7
2015-May-18 08:33N 35°29' E 140°01'0 0.1
2015-May-18 07:26N 35°29' E 140°01'0 0.0
2015-May-18 06:32N 35°29' E 140°01'0 0.0
2015-May-18 05:14N 35°29' E 140°01'0 0.0
2015-May-18 04:26N 35°29' E 140°01'0 0.0
2015-May-18 03:32N 35°29' E 140°01'0 0.0
2015-May-18 02:33N 35°29' E 140°01'9 9.4
2015-May-18 01:33N 35°38' E 139°59'3 3.1
2015-May-18 00:31N 35°41' E 139°56'  

Dump ship's entire track history